Data for 03/15/2014

Time Sea-Level Adjusted Pressure Absolute Pressure Temperature Relative Humidity Dew Point   
(mb) (inHg) (mb) (inHg) (C) (F) (%) (C) (F)
00:05 1018 30.06 847 25.01 1.6 35 50 -7.7 18.2
00:10 1018 30.06 847 25.01 1.5 34.7 50 -7.8 17.9
00:15 1018 30.06 847 25.01 1.5 34.7 50 -7.9 17.7
00:20 1018 30.06 847 25.01 1.3 34.4 51 -7.7 18.2
00:25 1018 30.06 847 25.01 1.2 34.2 50 -8.2 17.3
00:30 1018 30.06 847 25.01 1.2 34.2 49 -8.3 17
00:35 1018 30.06 847 25.01 1.2 34.2 50 -8 17.6
00:40 1018 30.06 847 25.01 1.2 34.1 49 -8.4 16.9
00:45 1018 30.06 847 25.01 1.3 34.3 49 -8.2 17.3
00:50 1018 30.06 847 25.01 1.3 34.3 49 -8.4 16.9
00:55 1018 30.06 847 25.01 1.3 34.3 49 -8.3 17.1
01:00 1018 30.06 847 25.01 1.3 34.3 49 -8.2 17.2
01:05 1018 30.06 847 25.01 1.3 34.4 50 -8.1 17.4
01:10 1018 30.06 847 25.01 1.4 34.6 49 -8.1 17.4
01:15 1018 30.06 847 25.01 1.4 34.6 51 -7.7 18.2
01:20 1018 30.06 847 25.01 1.4 34.5 50 -7.9 17.8
01:25 1018 30.06 847 25.01 1.4 34.5 50 -7.8 17.9
01:30 1018 30.06 847 25.01 1.4 34.5 51 -7.7 18.2
01:35 1018 30.06 847 25.01 1.4 34.4 50 -7.9 17.7
01:40 1018 30.06 847 25.01 1.4 34.5 49 -8.2 17.3
01:45 1018 30.06 847 25.01 1.5 34.7 49 -8 17.5
01:50 1018 30.06 848 25.04 1.5 34.7 48 -8.4 16.8
01:55 1018 30.06 848 25.04 1.5 34.8 49 -8.1 17.5
02:00 1018 30.06 848 25.04 1.5 34.8 48 -8.2 17.2
02:05 1018 30.06 848 25.04 1.6 34.8 49 -8 17.7
02:10 1018 30.06 848 25.04 1.6 34.9 48 -8.2 17.2
02:15 1019 30.09 848 25.04 1.6 35 48 -8.1 17.4
02:20 1019 30.09 848 25.04 1.6 34.9 48 -8.1 17.4
02:25 1019 30.09 848 25.04 1.7 35 49 -7.9 17.9
02:30 1019 30.09 848 25.04 1.6 34.9 49 -8 17.6
02:35 1019 30.09 848 25.04 1.6 34.8 50 -7.7 18.1
02:40 1019 30.09 848 25.04 1.5 34.8 50 -7.8 18
02:45 1019 30.09 848 25.04 1.6 34.8 49 -7.9 17.7
02:50 1019 30.09 848 25.04 1.6 34.8 48 -8.4 17
02:55 1019 30.09 848 25.04 1.7 35 48 -8.1 17.3
03:00 1019 30.09 848 25.04 1.7 35 47 -8.5 16.6
03:05 1019 30.09 848 25.04 1.7 35.1 48 -8.2 17.2
03:10 1019 30.09 849 25.07 1.7 35.1 48 -8.2 17.3
03:15 1019 30.09 849 25.07 1.7 35 48 -8.2 17.3
03:20 1019 30.09 849 25.07 1.7 35 47 -8.3 17
03:25 1019 30.09 849 25.07 1.7 35.1 48 -8.3 17.1
03:30 1019 30.09 849 25.07 1.7 35 48 -8.1 17.5
03:35 1020 30.12 849 25.07 1.6 34.9 49 -8 17.7
03:40 1020 30.12 849 25.07 1.6 34.8 50 -7.8 18
03:45 1020 30.12 849 25.07 1.5 34.8 50 -7.7 18.1
03:50 1020 30.12 849 25.07 1.5 34.7 50 -7.8 18
03:55 1020 30.12 849 25.07 1.5 34.8 51 -7.6 18.4
04:00 1020 30.12 849 25.07 1.5 34.7 50 -7.8 18
04:05 1020 30.12 849 25.07 1.6 34.8 49 -7.9 17.7
04:10 1020 30.12 849 25.07 1.6 35 49 -8 17.7
04:15 1020 30.12 849 25.07 1.6 34.9 51 -7.5 18.5
04:20 1020 30.12 850 25.1 1.6 34.8 51 -7.4 18.6
04:25 1020 30.12 850 25.1 1.6 34.8 50 -7.8 18
04:30 1020 30.12 850 25.1 1.6 34.9 49 -8.1 17.5
04:35 1020 30.12 850 25.1 1.7 35 50 -7.7 18.2
04:40 1020 30.12 850 25.1 1.6 34.9 49 -7.9 17.8
04:45 1021 30.15 850 25.1 1.6 34.9 49 -7.8 17.9
04:50 1021 30.15 850 25.1 1.6 34.9 51 -7.4 18.6
04:55 1021 30.15 850 25.1 1.5 34.7 52 -7.2 19
05:00 1021 30.15 850 25.1 1.4 34.6 53 -7.2 19
05:05 1021 30.15 850 25.1 1.3 34.4 53 -7.1 19.2
05:10 1021 30.15 850 25.1 1.3 34.3 54 -7.1 19.2
05:15 1021 30.15 850 25.1 1.2 34.2 53 -7.3 18.8
05:20 1021 30.15 851 25.13 1.2 34.2 53 -7.4 18.7
05:25 1021 30.15 851 25.13 1.2 34.2 53 -7.2 19
05:30 1022 30.18 851 25.13 1.2 34.2 53 -7.2 19
05:35 1022 30.18 851 25.13 1.2 34.2 52 -7.5 18.4
05:40 1022 30.18 851 25.13 1.2 34.2 53 -7.3 18.9
05:45 1022 30.18 851 25.13 1.3 34.3 53 -7.4 18.7
05:50 1022 30.18 851 25.13 1.2 34.2 53 -7.2 19
05:55 1022 30.18 851 25.13 1.2 34.2 52 -7.5 18.5
06:00 1022 30.18 852 25.16 1.3 34.3 52 -7.5 18.6
06:05 1023 30.21 852 25.16 1.2 34.2 53 -7.3 18.8
06:10 1023 30.21 852 25.16 1.2 34.1 52 -7.5 18.4
06:15 1023 30.21 852 25.16 1.2 34.1 53 -7.4 18.6
06:20 1023 30.21 852 25.16 1.2 34.1 52 -7.7 18.2
06:25 1023 30.21 852 25.16 1.2 34.2 52 -7.5 18.4
06:30 1023 30.21 852 25.16 1.2 34.2 52 -7.6 18.4
06:35 1023 30.21 852 25.16 1.2 34.2 53 -7.3 18.8
06:40 1023 30.21 852 25.16 1.2 34.1 52 -7.6 18.3
06:45 1023 30.21 852 25.16 1.2 34.2 50 -8 17.5
06:50 1023 30.21 852 25.16 1.3 34.4 50 -8.1 17.5
06:55 1023 30.21 853 25.19 1.3 34.3 51 -7.8 18
07:00 1024 30.24 853 25.19 1.2 34.2 52 -7.5 18.5
07:05 1024 30.24 853 25.19 1.1 34 52 -7.6 18.3
07:10 1024 30.24 853 25.19 1.1 33.9 52 -7.7 18.2
07:15 1024 30.24 853 25.19 1.1 34 52 -7.6 18.2
07:20 1024 30.24 853 25.19 1.1 34 52 -7.8 18
07:25 1024 30.24 853 25.19 1.1 34 52 -7.7 18.2
07:30 1024 30.24 853 25.19 1.1 34.1 53 -7.5 18.6
07:35 1024 30.24 853 25.19 1 33.9 54 -7.2 19
07:40 1024 30.24 853 25.19 0.9 33.7 55 -7.1 19.1
07:45 1024 30.24 854 25.22 0.9 33.7 55 -7.1 19.1
07:50 1024 30.24 854 25.22 0.9 33.7 55 -7.2 19
07:55 1025 30.27 854 25.22 1 33.8 53 -7.4 18.6
08:00 1025 30.27 854 25.22 1.1 34.1 54 -7.3 18.9
08:05 1025 30.27 854 25.22 1.2 34.1 55 -6.9 19.7
08:10 1025 30.27 854 25.22 1.1 34.1 54 -7 19.3
08:15 1025 30.27 854 25.22 1.2 34.2 53 -7.3 18.9
08:20 1025 30.27 854 25.22 1.3 34.4 53 -7.2 19.1
08:25 1025 30.27 854 25.22 1.5 34.8 52 -7.2 19
08:30 1025 30.27 854 25.22 1.8 35.2 51 -7.3 18.9
08:35 1025 30.27 854 25.22 1.8 35.2 49 -7.9 17.9
08:40 1025 30.27 854 25.22 1.8 35.3 50 -7.5 18.4
08:45 1025 30.27 855 25.25 1.8 35.3 48 -7.9 17.7
08:50 1025 30.27 855 25.25 1.8 35.3 48 -8.1 17.4
08:55 1025 30.27 855 25.25 2 35.6 49 -7.7 18.1
09:00 1026 30.3 855 25.25 2.1 35.7 49 -7.5 18.5
09:05 1026 30.3 855 25.25 2.1 35.8 49 -7.4 18.6
09:10 1026 30.3 855 25.25 2 35.6 50 -7.4 18.7
09:15 1026 30.3 855 25.25 1.9 35.4 50 -7.5 18.5
09:20 1026 30.3 855 25.25 2.1 35.7 48 -7.8 17.9
09:25 1026 30.3 855 25.25 2.2 36 48 -7.7 18.1
09:30 1026 30.3 855 25.25 2.6 36.7 46 -8 17.7
09:35 1026 30.3 855 25.25 2.7 36.9 46 -7.8 18
09:40 1026 30.3 855 25.25 2.8 37.1 47 -7.4 18.6
09:45 1026 30.3 855 25.25 3 37.4 48 -7.1 19.3
09:50 1026 30.3 855 25.25 3.2 37.8 45 -7.5 18.6
09:55 1026 30.3 855 25.25 3.7 38.7 41 -8.2 17.2
10:00 1026 30.3 855 25.25 4.4 39.8 41 -7.6 18.3
10:05 1026 30.3 855 25.25 5.1 41.2 38 -8.1 17.4
10:10 1026 30.3 855 25.25 4.4 39.9 43 -7.1 19.2
10:15 1026 30.3 855 25.25 3.8 38.8 41 -8.5 16.8
10:20 1026 30.3 855 25.25 3.8 38.8 41 -8.3 17.1
10:25 1026 30.3 855 25.25 4 39.2 40 -8.5 16.7
10:30 1026 30.3 855 25.25 4.9 40.8 38 -8.4 16.9
10:35 1026 30.3 855 25.25 4.9 40.7 39 -8.1 17.4
10:40 1026 30.3 856 25.28 5.2 41.4 38 -8.1 17.4
10:45 1026 30.3 856 25.28 5.3 41.6 35 -8.8 16.2
10:50 1026 30.3 856 25.28 4.7 40.5 39 -8.1 17.3
10:55 1026 30.3 856 25.28 3.8 38.8 40 -8.5 16.7
11:00 1026 30.3 856 25.28 3.6 38.4 41 -8.4 16.8
11:05 1026 30.3 856 25.28 3.6 38.5 42 -8 17.6
11:10 1026 30.3 856 25.28 3.9 39 40 -8.5 16.6
11:15 1026 30.3 856 25.28 4.4 39.9 39 -8.4 16.8
11:20 1026 30.3 856 25.28 4.4 39.9 39 -8.4 16.9
11:25 1026 30.3 856 25.28 4.3 39.7 41 -7.9 17.8
11:30 1026 30.3 856 25.28 4.4 39.9 38 -8.9 16
11:35 1026 30.3 856 25.28 4.3 39.7 39 -8.5 16.7
11:40 1026 30.3 856 25.28 4.7 40.5 35 -9.4 15.1
11:45 1026 30.3 856 25.28 5.3 41.6 37 -8.3 17
11:50 1027 30.33 856 25.28 5.6 42.1 34 -9 15.7
11:55 1026 30.3 856 25.28 5.4 41.8 33 -9.5 14.9
12:00 1026 30.3 856 25.28 5.7 42.2 32 -9.8 14.4
12:05 1027 30.33 856 25.28 6 42.8 31 -9.7 14.5
12:10 1027 30.33 856 25.28 5.8 42.4 32 -9.7 14.6
12:15 1027 30.33 856 25.28 5.7 42.2 33 -9.4 15.1
12:20 1027 30.33 856 25.28 6 42.8 32 -9.6 14.7
12:25 1026 30.3 856 25.28 6.7 44.1 31 -9.4 15.1
12:30 1026 30.3 856 25.28 6.6 43.8 32 -8.9 16
12:35 1026 30.3 856 25.28 6.5 43.8 32 -9.2 15.5
12:40 1026 30.3 855 25.25 6.5 43.6 30 -9.9 14.2
12:45 1026 30.3 855 25.25 6.3 43.3 31 -9.6 14.8
12:50 1026 30.3 856 25.28 6.8 44.2 31 -9.1 15.6
12:55 1026 30.3 856 25.28 6.9 44.4 28 -10.3 13.4
13:00 1026 30.3 856 25.28 6.8 44.3 28 -10.5 13.1
13:05 1026 30.3 856 25.28 7.2 45 27 -10.8 12.6
13:10 1026 30.3 856 25.28 7.4 45.2 27 -10.5 13.2
13:15 1026 30.3 855 25.25 7.4 45.3 26 -10.7 12.7
13:20 1026 30.3 855 25.25 7.3 45.2 26 -10.8 12.6
13:25 1026 30.3 855 25.25 7 44.5 27 -10.8 12.6
13:30 1026 30.3 855 25.25 6.8 44.3 26 -11.4 11.6
13:35 1026 30.3 855 25.25 6.9 44.4 28 -10.6 12.9
13:40 1026 30.3 855 25.25 6.9 44.4 27 -10.9 12.4
13:45 1026 30.3 855 25.25 6.9 44.5 26 -11.1 12
13:50 1026 30.3 855 25.25 6.8 44.3 27 -10.7 12.8
13:55 1026 30.3 855 25.25 6.9 44.4 27 -11.1 12
14:00 1026 30.3 855 25.25 7 44.6 27 -10.8 12.6
14:05 1026 30.3 855 25.25 7 44.6 28 -10.1 13.8
14:10 1026 30.3 855 25.25 7 44.7 27 -10.8 12.6
14:15 1026 30.3 855 25.25 7.5 45.5 27 -10.5 13.1
14:20 1026 30.3 855 25.25 7.5 45.5 28 -9.8 14.3
14:25 1026 30.3 855 25.25 7.1 44.8 28 -10.2 13.6
14:30 1026 30.3 855 25.25 7 44.6 26 -11.3 11.7
14:35 1026 30.3 855 25.25 6.6 43.9 28 -10.6 12.9
14:40 1026 30.3 855 25.25 6.7 44 27 -10.8 12.5
14:45 1026 30.3 855 25.25 7.1 44.8 28 -10.3 13.4
14:50 1026 30.3 855 25.25 7.4 45.4 27 -10.3 13.5
14:55 1026 30.3 855 25.25 7.6 45.7 26 -11 12.3
15:00 1026 30.3 855 25.25 7.3 45.2 26 -11.1 12
15:05 1026 30.3 855 25.25 7.4 45.3 26 -10.7 12.8
15:10 1026 30.3 855 25.25 8 46.4 24 -11.6 11.1
15:15 1026 30.3 855 25.25 8.5 47.4 25 -10.6 12.9
15:20 1026 30.3 855 25.25 8.9 48 23 -11.4 11.5
15:25 1026 30.3 855 25.25 9 48.1 23 -11.2 11.8
15:30 1026 30.3 855 25.25 8.8 47.8 23 -11.4 11.5
15:35 1026 30.3 855 25.25 8.4 47.1 22 -11.9 10.7
15:40 1026 30.3 855 25.25 8.6 47.4 23 -11.3 11.6
15:45 1026 30.3 855 25.25 8.5 47.3 22 -11.9 10.7
15:50 1026 30.3 855 25.25 9 48.1 23 -11.3 11.7
15:55 1026 30.3 855 25.25 9 48.2 22 -11.4 11.5
16:00 1026 30.3 855 25.25 8.9 48 23 -11.2 11.8
16:05 1026 30.3 855 25.25 8.8 47.9 23 -11.1 12
16:10 1026 30.3 855 25.25 8.5 47.3 23 -11.4 11.4
16:15 1026 30.3 855 25.25 8.2 46.7 23 -11.5 11.2
16:20 1026 30.3 855 25.25 8.1 46.5 24 -11.2 11.8
16:25 1026 30.3 855 25.25 7.6 45.7 28 -9.7 14.6
16:30 1026 30.3 855 25.25 6.7 44.1 30 -9.9 14.3
16:35 1026 30.3 855 25.25 6.7 44 27 -10.8 12.5
16:40 1026 30.3 855 25.25 6.9 44.4 26 -11.4 11.5
16:45 1026 30.3 855 25.25 7 44.7 27 -10.6 12.9
16:50 1026 30.3 855 25.25 7 44.5 27 -10.8 12.6
16:55 1026 30.3 855 25.25 7.3 45.1 28 -10.1 13.7
17:00 1026 30.3 855 25.25 7.3 45.1 27 -10.5 13.1
17:05 1026 30.3 855 25.25 7.3 45.1 28 -10.2 13.7
17:10 1026 30.3 855 25.25 7.3 45.1 28 -10.3 13.5
17:15 1026 30.3 855 25.25 7.2 45 29 -9.8 14.4
17:20 1025 30.27 855 25.25 7 44.7 29 -9.8 14.4
17:25 1025 30.27 855 25.25 7.2 44.9 29 -9.7 14.6
17:30 1025 30.27 855 25.25 7.2 44.9 29 -9.7 14.6
17:35 1025 30.27 855 25.25 7 44.7 31 -8.8 16.2
17:40 1026 30.3 855 25.25 6.9 44.5 31 -9.2 15.4
17:45 1026 30.3 855 25.25 6.9 44.5 31 -9 15.7
17:50 1026 30.3 855 25.25 6.9 44.5 31 -9 15.8
17:55 1026 30.3 855 25.25 6.9 44.4 31 -9.2 15.4
18:00 1026 30.3 855 25.25 6.9 44.4 32 -8.9 16
18:05 1026 30.3 855 25.25 6.7 44.1 33 -8.5 16.7
18:10 1026 30.3 855 25.25 6.5 43.7 35 -7.9 17.8
18:15 1026 30.3 855 25.25 6.4 43.5 36 -7.7 18.2
18:20 1026 30.3 855 25.25 6.2 43.2 37 -7.5 18.5
18:25 1026 30.3 855 25.25 6.2 43.1 36 -7.8 18
18:30 1026 30.3 855 25.25 6.1 43 37 -7.5 18.4
18:35 1026 30.3 855 25.25 6 42.9 36 -7.9 17.8
18:40 1026 30.3 855 25.25 6 42.9 33 -9.1 15.6
18:45 1026 30.3 855 25.25 6.5 43.7 30 -10 14.1
18:50 1026 30.3 855 25.25 6.6 43.9 31 -9.2 15.5
18:55 1026 30.3 855 25.25 6.5 43.7 31 -9.4 15
19:00 1026 30.3 855 25.25 6.4 43.6 29 -10.4 13.4
19:05 1026 30.3 855 25.25 6.5 43.7 31 -9.6 14.7
19:10 1026 30.3 855 25.25 6.5 43.7 31 -9.6 14.6
19:15 1026 30.3 855 25.25 6.4 43.6 31 -9.6 14.6
19:20 1026 30.3 855 25.25 6.4 43.6 31 -9.4 15
19:25 1026 30.3 855 25.25 6.3 43.4 31 -9.4 15.1
19:30 1026 30.3 855 25.25 6.3 43.3 33 -8.9 16
19:35 1026 30.3 855 25.25 6.2 43.2 33 -9 15.9
19:40 1026 30.3 855 25.25 6.2 43.1 32 -9.3 15.2
19:45 1026 30.3 855 25.25 6.2 43.1 33 -8.8 16.2
19:50 1026 30.3 855 25.25 6 42.9 34 -8.7 16.3
19:55 1026 30.3 855 25.25 6.1 42.9 36 -7.9 17.8
20:00 1026 30.3 856 25.28 6.2 43.2 35 -8 17.6
20:05 1027 30.33 856 25.28 6.2 43.2 36 -7.7 18.1
20:10 1027 30.33 856 25.28 6.3 43.3 36 -7.7 18.1
20:15 1027 30.33 856 25.28 6.3 43.3 37 -7.3 18.8
20:20 1027 30.33 856 25.28 6.2 43.2 40 -6.5 20.4
20:25 1027 30.33 856 25.28 6 42.7 41 -6.3 20.6
20:30 1027 30.33 856 25.28 6 42.8 38 -7.2 19.1
20:35 1027 30.33 856 25.28 6.1 43.1 39 -6.8 19.8
20:40 1027 30.33 856 25.28 6.2 43.1 42 -5.9 21.5
20:45 1027 30.33 856 25.28 5.9 42.7 36 -7.9 17.9
20:50 1027 30.33 856 25.28 6.1 43 36 -7.8 18
20:55 1027 30.33 856 25.28 6 42.9 38 -7.2 19.1
21:00 1027 30.33 856 25.28 5.9 42.7 39 -6.8 19.7
21:05 1027 30.33 856 25.28 5.8 42.4 41 -6.6 20.1
21:10 1027 30.33 856 25.28 5.7 42.2 41 -6.7 20
21:15 1027 30.33 856 25.28 5.7 42.2 41 -6.7 20
21:20 1027 30.33 856 25.28 5.7 42.3 39 -7.1 19.2
21:25 1027 30.33 856 25.28 5.9 42.5 39 -7.1 19.2
21:30 1027 30.33 856 25.28 5.8 42.5 39 -7 19.3
21:35 1027 30.33 856 25.28 5.8 42.4 38 -7.3 18.9
21:40 1027 30.33 856 25.28 5.8 42.5 40 -6.6 20.1
21:45 1026 30.3 856 25.28 5.6 42 41 -6.5 20.2
21:50 1026 30.3 856 25.28 5.4 41.7 42 -6.4 20.4
21:55 1026 30.3 855 25.25 5.2 41.3 42 -6.6 20
22:00 1026 30.3 855 25.25 5.2 41.3 43 -6.4 20.5
22:05 1026 30.3 855 25.25 5.2 41.4 44 -5.9 21.3
22:10 1026 30.3 856 25.28 5.3 41.6 43 -6.1 21
22:15 1026 30.3 856 25.28 5.2 41.4 46 -5.4 22.3
22:20 1026 30.3 856 25.28 4.8 40.6 49 -5.1 22.9
22:25 1026 30.3 855 25.25 4.5 40.2 48 -5.4 22.3
22:30 1026 30.3 856 25.28 4.5 40 52 -4.5 23.9
22:35 1026 30.3 855 25.25 4.3 39.8 53 -4.5 23.9
22:40 1026 30.3 855 25.25 4.2 39.6 54 -4.3 24.2
22:45 1026 30.3 855 25.25 4.2 39.6 52 -4.7 23.5
22:50 1026 30.3 855 25.25 4.2 39.5 52 -4.8 23.4
22:55 1026 30.3 855 25.25 4.2 39.6 52 -4.8 23.3
23:00 1026 30.3 855 25.25 4.3 39.7 52 -4.7 23.5
23:05 1026 30.3 855 25.25 3.9 39 52 -5 23
23:10 1026 30.3 855 25.25 3.8 38.8 54 -4.7 23.5
23:15 1026 30.3 855 25.25 3.8 38.9 53 -5 23
23:20 1026 30.3 855 25.25 3.7 38.7 54 -4.7 23.5
23:25 1026 30.3 855 25.25 3.5 38.4 54 -4.8 23.3
23:30 1026 30.3 855 25.25 3.5 38.2 54 -5 23.1
23:35 1026 30.3 855 25.25 3.3 38 56 -4.7 23.6
23:40 1026 30.3 855 25.25 3.2 37.7 55 -4.9 23.2
23:45 1025 30.27 855 25.25 3.1 37.6 54 -5.3 22.5
23:50 1025 30.27 855 25.25 3.2 37.7 56 -4.7 23.6
23:55 1025 30.27 854 25.22 2.8 37.1 58 -4.6 23.8
24:00 1025 30.27 854 25.22 2.5 36.5 59 -4.7 23.5